QFA321 YBCS-YBCS
Flight info
| Callsign | QFA321 |
|---|---|
| Flight time | 0h 10m |
| Altitude | 29000 |
| Route | AKROM1/15 AKROM OVRON |
| Aircraft | A21N/M-VGDW/C |
Departure
| Time | 2026-04-27 11:59 |
|---|---|
| Airport | Cairns International Airport (YBCS) |
Arrival
| Time | 2026-04-27 12:09 |
|---|---|
| Airport | Cairns International Airport (YBCS) |
| Time | Latitude | Longitude | Altitude | Speed | Heading |
|---|---|---|---|---|---|
| 2026-04-27 11:47 | -17.20271 | 146.06389 | 9962 ft | 255 kts | 127° |
| 2026-04-27 11:48 | -17.20974 | 146.08099 | 9984 ft | 264 kts | 98° |
| 2026-04-27 11:48 | -17.20784 | 146.10023 | 9984 ft | 277 kts | 71° |
| 2026-04-27 11:48 | -17.19697 | 146.11736 | 9982 ft | 289 kts | 45° |
| 2026-04-27 11:48 | -17.17961 | 146.12807 | 9976 ft | 295 kts | 20° |
| 2026-04-27 11:49 | -17.15907 | 146.13185 | 9995 ft | 298 kts | 9° |
| 2026-04-27 11:49 | -17.13834 | 146.13356 | 9986 ft | 298 kts | 7° |
| 2026-04-27 11:49 | -17.11763 | 146.13490 | 9986 ft | 298 kts | 7° |
| 2026-04-27 11:49 | -17.09684 | 146.13619 | 9972 ft | 298 kts | 7° |
| 2026-04-27 11:50 | -17.07616 | 146.13747 | 9969 ft | 298 kts | 7° |
| 2026-04-27 11:50 | -17.05544 | 146.13881 | 9976 ft | 297 kts | 7° |
| 2026-04-27 11:50 | -17.03463 | 146.14017 | 9973 ft | 297 kts | 7° |
| 2026-04-27 11:50 | -17.01383 | 146.14154 | 9973 ft | 297 kts | 7° |
| 2026-04-27 11:51 | -16.99306 | 146.14296 | 9974 ft | 297 kts | 7° |
| 2026-04-27 11:51 | -16.97244 | 146.14439 | 9974 ft | 297 kts | 7° |
| 2026-04-27 11:51 | -16.93117 | 146.14720 | 9970 ft | 297 kts | 7° |
| 2026-04-27 11:52 | -16.91046 | 146.14859 | 9971 ft | 297 kts | 7° |
| 2026-04-27 11:52 | -16.88965 | 146.14992 | 9974 ft | 297 kts | 7° |
| 2026-04-27 11:52 | -16.86896 | 146.15122 | 9976 ft | 298 kts | 7° |
| 2026-04-27 11:52 | -16.84810 | 146.15253 | 9977 ft | 298 kts | 7° |
| 2026-04-27 11:53 | -16.82745 | 146.15387 | 9881 ft | 295 kts | 7° |
| 2026-04-27 11:53 | -16.80713 | 146.15524 | 9538 ft | 293 kts | 7° |
| 2026-04-27 11:53 | -16.78666 | 146.15666 | 9104 ft | 293 kts | 7° |
| 2026-04-27 11:53 | -16.76614 | 146.15810 | 8679 ft | 292 kts | 7° |
| 2026-04-27 11:54 | -16.74582 | 146.15955 | 8271 ft | 290 kts | 7° |
| 2026-04-27 11:54 | -16.72575 | 146.16093 | 7865 ft | 288 kts | 7° |
| 2026-04-27 11:54 | -16.70584 | 146.16231 | 7466 ft | 287 kts | 7° |
| 2026-04-27 11:54 | -16.68577 | 146.16363 | 7082 ft | 284 kts | 7° |
| 2026-04-27 11:55 | -16.66620 | 146.16476 | 6972 ft | 284 kts | 6° |
| 2026-04-27 11:55 | -16.64631 | 146.16577 | 6967 ft | 286 kts | 6° |
| 2026-04-27 11:55 | -16.62614 | 146.16669 | 6968 ft | 287 kts | 6° |
| 2026-04-27 11:55 | -16.60610 | 146.16757 | 6968 ft | 288 kts | 6° |
| 2026-04-27 11:56 | -16.58610 | 146.16841 | 6966 ft | 288 kts | 6° |
| 2026-04-27 11:56 | -16.56584 | 146.16667 | 6900 ft | 293 kts | 344° |
| 2026-04-27 11:56 | -16.54893 | 146.15538 | 6735 ft | 296 kts | 311° |
| 2026-04-27 11:56 | -16.53996 | 146.13623 | 6563 ft | 293 kts | 278° |
| 2026-04-27 11:57 | -16.54143 | 146.11571 | 6399 ft | 288 kts | 250° |
| 2026-04-27 11:57 | -16.54948 | 146.09647 | 6245 ft | 286 kts | 243° |
| 2026-04-27 11:57 | -16.55766 | 146.07781 | 6069 ft | 279 kts | 244° |
| 2026-04-27 11:57 | -16.56506 | 146.05968 | 5896 ft | 269 kts | 245° |
| 2026-04-27 11:58 | -16.57193 | 146.04189 | 5720 ft | 260 kts | 246° |
| 2026-04-27 11:58 | -16.57838 | 146.02457 | 5543 ft | 251 kts | 246° |
| 2026-04-27 11:58 | -16.58452 | 146.00774 | 5363 ft | 243 kts | 246° |
| 2026-04-27 11:58 | -16.59030 | 145.99171 | 5185 ft | 234 kts | 246° |
| 2026-04-27 11:59 | -16.59598 | 145.97589 | 5016 ft | 228 kts | 245° |
| 2026-04-27 11:59 | -16.60166 | 145.96053 | 4983 ft | 228 kts | 245° |
| 2026-04-27 11:59 | -16.60728 | 145.94518 | 4976 ft | 228 kts | 246° |
| 2026-04-27 11:59 | -16.61284 | 145.92960 | 5000 ft | 228 kts | 246° |
| 2026-04-27 12:00 | -16.61843 | 145.91405 | 5062 ft | 227 kts | 248° |
| 2026-04-27 12:00 | -16.62351 | 145.89908 | 4990 ft | 211 kts | 247° |
| 2026-04-27 12:00 | -16.62847 | 145.88495 | 4974 ft | 206 kts | 244° |
| 2026-04-27 12:00 | -16.63356 | 145.87112 | 4975 ft | 207 kts | 246° |
| 2026-04-27 12:01 | -16.63863 | 145.85696 | 4971 ft | 206 kts | 246° |
| 2026-04-27 12:01 | -16.64351 | 145.84311 | 4910 ft | 203 kts | 248° |
| 2026-04-27 12:01 | -16.64754 | 145.82901 | 4644 ft | 204 kts | 256° |
| 2026-04-27 12:01 | -16.64888 | 145.81419 | 4264 ft | 208 kts | 268° |
| 2026-04-27 12:02 | -16.64787 | 145.79915 | 3990 ft | 207 kts | 272° |
| 2026-04-27 12:02 | -16.64653 | 145.78416 | 3985 ft | 211 kts | 272° |
| 2026-04-27 12:02 | -16.64500 | 145.76898 | 3987 ft | 210 kts | 275° |
| 2026-04-27 12:02 | -16.64404 | 145.75378 | 3972 ft | 208 kts | 266° |
| 2026-04-27 12:03 | -16.64593 | 145.73885 | 3983 ft | 205 kts | 253° |
| 2026-04-27 12:03 | -16.65062 | 145.72494 | 3993 ft | 201 kts | 241° |
| 2026-04-27 12:03 | -16.65770 | 145.71263 | 3995 ft | 197 kts | 229° |
| 2026-04-27 12:03 | -16.66685 | 145.70207 | 3996 ft | 193 kts | 218° |
| 2026-04-27 12:04 | -16.67750 | 145.69357 | 3868 ft | 190 kts | 208° |
| 2026-04-27 12:04 | -16.68916 | 145.68735 | 3672 ft | 185 kts | 197° |
| 2026-04-27 12:04 | -16.70120 | 145.68359 | 3473 ft | 180 kts | 187° |
| 2026-04-27 12:04 | -16.71370 | 145.68213 | 3265 ft | 176 kts | 178° |
| 2026-04-27 12:05 | -16.72569 | 145.68289 | 3063 ft | 172 kts | 169° |
| 2026-04-27 12:05 | -16.73729 | 145.68568 | 2846 ft | 169 kts | 160° |
| 2026-04-27 12:05 | -16.74820 | 145.69020 | 2612 ft | 170 kts | 155° |
| 2026-04-27 12:05 | -16.75907 | 145.69508 | 2309 ft | 170 kts | 155° |
| 2026-04-27 12:06 | -16.76990 | 145.70000 | 2025 ft | 166 kts | 155° |
| 2026-04-27 12:06 | -16.78028 | 145.70467 | 1770 ft | 153 kts | 154° |
| 2026-04-27 12:06 | -16.78969 | 145.70905 | 1608 ft | 147 kts | 152° |
| 2026-04-27 12:06 | -16.79906 | 145.71352 | 1429 ft | 147 kts | 154° |
| 2026-04-27 12:07 | -16.80839 | 145.71777 | 1221 ft | 144 kts | 155° |
| 2026-04-27 12:07 | -16.81760 | 145.72205 | 1023 ft | 144 kts | 155° |
| 2026-04-27 12:07 | -16.82680 | 145.72623 | 824 ft | 143 kts | 157° |
| 2026-04-27 12:07 | -16.83601 | 145.73021 | 629 ft | 143 kts | 156° |
| 2026-04-27 12:08 | -16.84513 | 145.73422 | 477 ft | 143 kts | 157° |
| 2026-04-27 12:08 | -16.85426 | 145.73834 | 299 ft | 141 kts | 158° |
| 2026-04-27 12:08 | -16.86327 | 145.74242 | 99 ft | 137 kts | 156° |
| 2026-04-27 12:08 | -16.86905 | 145.74509 | 24 ft | 132 kts | 159° |
| 2026-04-27 12:09 | -16.87821 | 145.74907 | 17 ft | 75 kts | 152° |
| 2026-04-27 12:09 | -16.88225 | 145.75099 | 20 ft | 57 kts | 157° |
| 2026-04-27 12:09 | -16.88558 | 145.75246 | 20 ft | 38 kts | 156° |
| 2026-04-27 12:09 | -16.88684 | 145.75363 | 20 ft | 20 kts | 94° |
| 2026-04-27 12:10 | -16.88624 | 145.75467 | 17 ft | 16 kts | 359° |
| 2026-04-27 12:10 | -16.88522 | 145.75432 | 17 ft | 14 kts | 335° |
| 2026-04-27 12:10 | -16.88430 | 145.75386 | 17 ft | 14 kts | 334° |
| 2026-04-27 12:10 | -16.88344 | 145.75342 | 17 ft | 13 kts | 333° |
| 2026-04-27 12:11 | -16.88262 | 145.75302 | 17 ft | 12 kts | 338° |
| 2026-04-27 12:11 | -16.88184 | 145.75269 | 17 ft | 12 kts | 337° |
| 2026-04-27 12:11 | -16.88105 | 145.75232 | 17 ft | 12 kts | 335° |
| 2026-04-27 12:11 | -16.88028 | 145.75198 | 17 ft | 12 kts | 337° |
| 2026-04-27 12:12 | -16.87951 | 145.75166 | 17 ft | 11 kts | 347° |
| 2026-04-27 12:12 | -16.87893 | 145.75203 | 17 ft | 10 kts | 49° |
| 2026-04-27 12:12 | -16.87835 | 145.75214 | 17 ft | 7 kts | 348° |
| 2026-04-27 12:12 | -16.87810 | 145.75224 | 17 ft | 3 kts | 56° |
| 2026-04-27 12:13 | -16.87799 | 145.75249 | 17 ft | 3 kts | 68° |
| 2026-04-27 12:13 | -16.87789 | 145.75275 | 17 ft | 3 kts | 67° |
| 2026-04-27 12:13 | -16.87782 | 145.75291 | 17 ft | 0 kts | 68° |